sensor_id;sensor_type;location;lat;lon;timestamp;P1;durP1;ratioP1;P2;durP2;ratioP2
44197;SDS011;30157;55.512;37.764;2022-07-29T00:00:45;2.67;;;1.10;;
44197;SDS011;30157;55.512;37.764;2022-07-29T00:03:11;5.57;;;1.85;;
44197;SDS011;30157;55.512;37.764;2022-07-29T00:05:40;1.73;;;1.00;;
44197;SDS011;30157;55.512;37.764;2022-07-29T00:08:09;2.20;;;1.20;;
44197;SDS011;30157;55.512;37.764;2022-07-29T00:10:35;1.40;;;1.00;;
44197;SDS011;30157;55.512;37.764;2022-07-29T00:13:01;2.33;;;1.10;;
44197;SDS011;30157;55.512;37.764;2022-07-29T00:15:27;2.20;;;1.13;;
44197;SDS011;30157;55.512;37.764;2022-07-29T00:17:53;1.92;;;1.10;;
44197;SDS011;30157;55.512;37.764;2022-07-29T00:20:19;3.78;;;1.20;;
44197;SDS011;30157;55.512;37.764;2022-07-29T00:22:45;1.52;;;1.10;;
44197;SDS011;30157;55.512;37.764;2022-07-29T00:25:11;1.58;;;1.10;;
44197;SDS011;30157;55.512;37.764;2022-07-29T00:27:38;1.75;;;1.10;;
44197;SDS011;30157;55.512;37.764;2022-07-29T00:30:04;1.88;;;1.10;;
44197;SDS011;30157;55.512;37.764;2022-07-29T00:32:31;2.22;;;1.30;;
44197;SDS011;30157;55.512;37.764;2022-07-29T00:34:57;1.80;;;1.25;;
44197;SDS011;30157;55.512;37.764;2022-07-29T00:37:59;3.42;;;1.33;;
44197;SDS011;30157;55.512;37.764;2022-07-29T00:40:24;2.60;;;1.20;;
44197;SDS011;30157;55.512;37.764;2022-07-29T00:42:50;1.80;;;1.30;;
44197;SDS011;30157;55.512;37.764;2022-07-29T00:45:17;2.30;;;1.33;;
44197;SDS011;30157;55.512;37.764;2022-07-29T00:47:44;2.70;;;1.50;;
44197;SDS011;30157;55.512;37.764;2022-07-29T00:50:11;2.00;;;1.52;;
44197;SDS011;30157;55.512;37.764;2022-07-29T00:52:38;5.93;;;1.40;;
44197;SDS011;30157;55.512;37.764;2022-07-29T00:55:05;2.05;;;1.40;;
44197;SDS011;30157;55.512;37.764;2022-07-29T00:57:34;2.58;;;1.38;;
44197;SDS011;30157;55.512;37.764;2022-07-29T01:00:00;2.53;;;1.38;;
44197;SDS011;30157;55.512;37.764;2022-07-29T01:02:29;2.65;;;1.40;;
44197;SDS011;30157;55.512;37.764;2022-07-29T01:04:54;1.92;;;1.30;;
44197;SDS011;30157;55.512;37.764;2022-07-29T01:07:22;2.28;;;1.25;;
44197;SDS011;30157;55.512;37.764;2022-07-29T01:09:49;2.28;;;1.40;;
44197;SDS011;30157;55.512;37.764;2022-07-29T01:12:20;2.50;;;1.40;;
44197;SDS011;30157;55.512;37.764;2022-07-29T01:14:49;1.83;;;1.40;;
44197;SDS011;30157;55.512;37.764;2022-07-29T01:17:20;2.95;;;1.48;;
44197;SDS011;30157;55.512;37.764;2022-07-29T01:20:04;2.25;;;1.80;;
44197;SDS011;30157;55.512;37.764;2022-07-29T01:30:29;3.28;;;1.30;;
44197;SDS011;30157;55.512;37.764;2022-07-29T01:33:02;1.77;;;1.10;;
44197;SDS011;30157;55.512;37.764;2022-07-29T01:35:34;2.15;;;1.40;;
44197;SDS011;30157;55.512;37.764;2022-07-29T01:38:01;3.33;;;2.03;;
44197;SDS011;30157;55.512;37.764;2022-07-29T01:40:46;5.00;;;1.77;;
44197;SDS011;30157;55.512;37.764;2022-07-29T01:43:17;3.58;;;1.70;;
44197;SDS011;30157;55.512;37.764;2022-07-29T01:46:02;2.28;;;1.55;;
44197;SDS011;30157;55.512;37.764;2022-07-29T01:48:32;2.45;;;1.60;;
44197;SDS011;30157;55.512;37.764;2022-07-29T01:51:04;3.90;;;1.65;;
44197;SDS011;30157;55.512;37.764;2022-07-29T01:53:36;2.20;;;1.45;;
44197;SDS011;30157;55.512;37.764;2022-07-29T01:56:07;3.63;;;1.70;;
44197;SDS011;30157;55.512;37.764;2022-07-29T01:58:35;3.38;;;1.70;;
44197;SDS011;30157;55.512;37.764;2022-07-29T02:01:05;4.80;;;1.75;;
44197;SDS011;30157;55.512;37.764;2022-07-29T02:03:35;2.72;;;2.28;;
44197;SDS011;30157;55.512;37.764;2022-07-29T02:06:03;3.85;;;2.30;;
44197;SDS011;30157;55.512;37.764;2022-07-29T02:08:32;3.22;;;1.88;;
44197;SDS011;30157;55.512;37.764;2022-07-29T02:11:02;4.72;;;1.90;;
44197;SDS011;30157;55.512;37.764;2022-07-29T02:13:31;3.55;;;1.83;;
44197;SDS011;30157;55.512;37.764;2022-07-29T02:15:59;3.15;;;1.60;;
44197;SDS011;30157;55.512;37.764;2022-07-29T02:18:27;2.72;;;1.50;;
44197;SDS011;30157;55.512;37.764;2022-07-29T02:20:55;2.75;;;1.90;;
44197;SDS011;30157;55.512;37.764;2022-07-29T02:23:23;2.65;;;1.88;;
44197;SDS011;30157;55.512;37.764;2022-07-29T02:25:52;4.53;;;1.73;;
44197;SDS011;30157;55.512;37.764;2022-07-29T02:28:20;4.82;;;1.70;;
44197;SDS011;30157;55.512;37.764;2022-07-29T02:30:49;4.38;;;1.70;;
44197;SDS011;30157;55.512;37.764;2022-07-29T02:33:17;4.47;;;1.65;;
44197;SDS011;30157;55.512;37.764;2022-07-29T02:35:44;3.25;;;1.92;;
44197;SDS011;30157;55.512;37.764;2022-07-29T02:38:12;3.05;;;1.90;;
44197;SDS011;30157;55.512;37.764;2022-07-29T02:40:59;3.20;;;2.00;;
44197;SDS011;30157;55.512;37.764;2022-07-29T02:43:29;3.78;;;1.70;;
44197;SDS011;30157;55.512;37.764;2022-07-29T02:45:56;3.55;;;1.75;;
44197;SDS011;30157;55.512;37.764;2022-07-29T02:48:27;2.83;;;1.40;;
44197;SDS011;30157;55.512;37.764;2022-07-29T02:51:15;3.13;;;1.90;;
44197;SDS011;30157;55.512;37.764;2022-07-29T02:53:45;2.80;;;1.65;;
44197;SDS011;30157;55.512;37.764;2022-07-29T02:56:16;3.25;;;1.80;;
44197;SDS011;30157;55.512;37.764;2022-07-29T02:58:53;2.08;;;1.55;;
44197;SDS011;30157;55.512;37.764;2022-07-29T03:01:25;2.15;;;1.50;;
44197;SDS011;30157;55.512;37.764;2022-07-29T03:03:55;4.63;;;1.52;;
44197;SDS011;30157;55.512;37.764;2022-07-29T03:06:22;2.78;;;1.60;;
44197;SDS011;30157;55.512;37.764;2022-07-29T03:08:50;2.45;;;1.80;;
44197;SDS011;30157;55.512;37.764;2022-07-29T03:11:16;4.45;;;1.90;;
44197;SDS011;30157;55.512;37.764;2022-07-29T03:13:43;5.47;;;1.90;;
44197;SDS011;30157;55.512;37.764;2022-07-29T03:16:10;2.58;;;1.50;;
44197;SDS011;30157;55.512;37.764;2022-07-29T03:18:38;3.53;;;1.67;;
44197;SDS011;30157;55.512;37.764;2022-07-29T03:21:04;2.75;;;1.50;;
44197;SDS011;30157;55.512;37.764;2022-07-29T03:23:30;2.78;;;1.85;;
44197;SDS011;30157;55.512;37.764;2022-07-29T03:25:55;5.03;;;1.40;;
44197;SDS011;30157;55.512;37.764;2022-07-29T03:28:22;3.20;;;1.45;;
44197;SDS011;30157;55.512;37.764;2022-07-29T03:30:48;1.65;;;1.42;;
44197;SDS011;30157;55.512;37.764;2022-07-29T03:33:18;1.98;;;1.13;;
44197;SDS011;30157;55.512;37.764;2022-07-29T03:35:43;2.85;;;1.38;;
44197;SDS011;30157;55.512;37.764;2022-07-29T03:38:09;2.50;;;1.20;;
44197;SDS011;30157;55.512;37.764;2022-07-29T03:40:43;1.98;;;1.10;;
44197;SDS011;30157;55.512;37.764;2022-07-29T03:43:15;1.88;;;1.25;;
44197;SDS011;30157;55.512;37.764;2022-07-29T03:45:45;2.60;;;1.60;;
44197;SDS011;30157;55.512;37.764;2022-07-29T03:48:15;2.85;;;1.77;;
44197;SDS011;30157;55.512;37.764;2022-07-29T03:50:43;4.60;;;1.67;;
44197;SDS011;30157;55.512;37.764;2022-07-29T03:53:09;1.90;;;1.30;;
44197;SDS011;30157;55.512;37.764;2022-07-29T03:55:37;4.70;;;1.15;;
44197;SDS011;30157;55.512;37.764;2022-07-29T03:58:07;2.95;;;1.50;;
44197;SDS011;30157;55.512;37.764;2022-07-29T04:00:34;3.30;;;1.35;;
44197;SDS011;30157;55.512;37.764;2022-07-29T04:03:01;3.42;;;1.20;;
44197;SDS011;30157;55.512;37.764;2022-07-29T04:05:31;3.88;;;1.23;;
44197;SDS011;30157;55.512;37.764;2022-07-29T04:07:57;2.55;;;1.42;;
44197;SDS011;30157;55.512;37.764;2022-07-29T04:10:22;2.75;;;1.20;;
44197;SDS011;30157;55.512;37.764;2022-07-29T04:12:48;2.20;;;1.17;;
44197;SDS011;30157;55.512;37.764;2022-07-29T04:15:14;2.35;;;1.13;;
44197;SDS011;30157;55.512;37.764;2022-07-29T04:17:40;2.45;;;1.20;;
44197;SDS011;30157;55.512;37.764;2022-07-29T04:20:06;2.42;;;1.30;;
44197;SDS011;30157;55.512;37.764;2022-07-29T04:22:32;1.95;;;1.42;;
44197;SDS011;30157;55.512;37.764;2022-07-29T04:24:57;3.55;;;1.20;;
44197;SDS011;30157;55.512;37.764;2022-07-29T04:27:23;3.13;;;1.40;;
44197;SDS011;30157;55.512;37.764;2022-07-29T04:29:49;1.50;;;1.00;;
44197;SDS011;30157;55.512;37.764;2022-07-29T04:32:14;2.97;;;1.23;;
44197;SDS011;30157;55.512;37.764;2022-07-29T04:34:40;1.85;;;1.10;;
44197;SDS011;30157;55.512;37.764;2022-07-29T04:37:06;1.38;;;1.00;;
44197;SDS011;30157;55.512;37.764;2022-07-29T04:39:31;1.90;;;1.05;;
44197;SDS011;30157;55.512;37.764;2022-07-29T04:41:57;2.25;;;1.10;;
44197;SDS011;30157;55.512;37.764;2022-07-29T04:44:23;2.00;;;1.20;;
44197;SDS011;30157;55.512;37.764;2022-07-29T04:46:49;2.58;;;1.10;;
44197;SDS011;30157;55.512;37.764;2022-07-29T04:49:14;1.75;;;1.00;;
44197;SDS011;30157;55.512;37.764;2022-07-29T04:51:40;2.05;;;0.90;;
44197;SDS011;30157;55.512;37.764;2022-07-29T04:54:06;2.35;;;1.02;;
44197;SDS011;30157;55.512;37.764;2022-07-29T04:56:31;2.70;;;1.02;;
44197;SDS011;30157;55.512;37.764;2022-07-29T04:58:57;2.47;;;1.30;;
44197;SDS011;30157;55.512;37.764;2022-07-29T05:01:23;2.45;;;1.17;;
44197;SDS011;30157;55.512;37.764;2022-07-29T05:03:49;3.88;;;1.15;;
44197;SDS011;30157;55.512;37.764;2022-07-29T05:06:14;2.22;;;1.10;;
44197;SDS011;30157;55.512;37.764;2022-07-29T05:08:40;2.25;;;1.00;;
44197;SDS011;30157;55.512;37.764;2022-07-29T05:11:06;1.88;;;1.00;;
44197;SDS011;30157;55.512;37.764;2022-07-29T05:13:31;2.90;;;1.00;;
44197;SDS011;30157;55.512;37.764;2022-07-29T05:15:57;2.20;;;1.20;;
44197;SDS011;30157;55.512;37.764;2022-07-29T05:18:25;1.60;;;0.88;;
44197;SDS011;30157;55.512;37.764;2022-07-29T05:20:51;2.60;;;1.20;;
44197;SDS011;30157;55.512;37.764;2022-07-29T05:23:17;2.45;;;0.90;;
44197;SDS011;30157;55.512;37.764;2022-07-29T05:25:42;1.55;;;1.00;;
44197;SDS011;30157;55.512;37.764;2022-07-29T05:28:08;1.35;;;1.02;;
44197;SDS011;30157;55.512;37.764;2022-07-29T05:30:34;1.65;;;1.00;;
44197;SDS011;30157;55.512;37.764;2022-07-29T05:33:00;4.45;;;1.00;;
44197;SDS011;30157;55.512;37.764;2022-07-29T05:35:25;2.15;;;1.20;;
44197;SDS011;30157;55.512;37.764;2022-07-29T05:37:51;2.97;;;1.20;;
44197;SDS011;30157;55.512;37.764;2022-07-29T05:40:17;2.45;;;1.10;;
44197;SDS011;30157;55.512;37.764;2022-07-29T05:42:43;3.67;;;1.10;;
44197;SDS011;30157;55.512;37.764;2022-07-29T05:45:08;3.45;;;1.27;;
44197;SDS011;30157;55.512;37.764;2022-07-29T05:47:35;3.63;;;2.50;;
44197;SDS011;30157;55.512;37.764;2022-07-29T05:50:00;3.00;;;1.40;;
44197;SDS011;30157;55.512;37.764;2022-07-29T05:52:28;4.95;;;1.35;;
44197;SDS011;30157;55.512;37.764;2022-07-29T05:54:54;1.80;;;1.00;;
44197;SDS011;30157;55.512;37.764;2022-07-29T05:57:21;1.25;;;0.93;;
44197;SDS011;30157;55.512;37.764;2022-07-29T05:59:48;1.88;;;1.17;;
44197;SDS011;30157;55.512;37.764;2022-07-29T06:02:14;3.08;;;1.27;;
44197;SDS011;30157;55.512;37.764;2022-07-29T06:04:43;2.90;;;1.13;;
44197;SDS011;30157;55.512;37.764;2022-07-29T06:07:09;4.70;;;1.30;;
44197;SDS011;30157;55.512;37.764;2022-07-29T06:09:35;3.22;;;1.20;;
44197;SDS011;30157;55.512;37.764;2022-07-29T06:12:01;3.10;;;1.00;;
44197;SDS011;30157;55.512;37.764;2022-07-29T06:14:27;1.67;;;0.93;;
44197;SDS011;30157;55.512;37.764;2022-07-29T06:16:53;2.95;;;1.13;;
44197;SDS011;30157;55.512;37.764;2022-07-29T06:19:19;1.45;;;1.35;;
44197;SDS011;30157;55.512;37.764;2022-07-29T06:21:46;2.47;;;1.20;;
44197;SDS011;30157;55.512;37.764;2022-07-29T06:24:13;3.47;;;1.10;;
44197;SDS011;30157;55.512;37.764;2022-07-29T06:26:41;2.30;;;1.30;;
44197;SDS011;30157;55.512;37.764;2022-07-29T06:29:07;2.20;;;1.00;;
44197;SDS011;30157;55.512;37.764;2022-07-29T06:31:33;2.90;;;0.90;;
44197;SDS011;30157;55.512;37.764;2022-07-29T06:33:59;3.15;;;1.13;;
44197;SDS011;30157;55.512;37.764;2022-07-29T06:36:25;2.10;;;1.30;;
44197;SDS011;30157;55.512;37.764;2022-07-29T06:38:51;3.10;;;1.55;;
44197;SDS011;30157;55.512;37.764;2022-07-29T06:41:17;2.30;;;1.10;;
44197;SDS011;30157;55.512;37.764;2022-07-29T06:43:43;3.17;;;1.05;;
44197;SDS011;30157;55.512;37.764;2022-07-29T06:46:12;2.15;;;1.05;;
44197;SDS011;30157;55.512;37.764;2022-07-29T06:48:39;3.75;;;1.30;;
44197;SDS011;30157;55.512;37.764;2022-07-29T06:51:09;3.42;;;1.20;;
44197;SDS011;30157;55.512;37.764;2022-07-29T06:53:36;2.00;;;1.15;;
44197;SDS011;30157;55.512;37.764;2022-07-29T06:56:03;1.65;;;0.82;;
44197;SDS011;30157;55.512;37.764;2022-07-29T06:58:30;1.48;;;1.10;;
44197;SDS011;30157;55.512;37.764;2022-07-29T07:00:57;2.75;;;1.20;;
44197;SDS011;30157;55.512;37.764;2022-07-29T07:03:23;1.95;;;1.10;;
44197;SDS011;30157;55.512;37.764;2022-07-29T07:05:50;2.55;;;1.02;;
44197;SDS011;30157;55.512;37.764;2022-07-29T07:08:17;2.35;;;1.10;;
44197;SDS011;30157;55.512;37.764;2022-07-29T07:10:44;3.47;;;1.60;;
44197;SDS011;30157;55.512;37.764;2022-07-29T07:13:11;3.30;;;2.17;;
44197;SDS011;30157;55.512;37.764;2022-07-29T07:15:37;2.30;;;1.05;;
44197;SDS011;30157;55.512;37.764;2022-07-29T07:18:03;3.15;;;1.20;;
44197;SDS011;30157;55.512;37.764;2022-07-29T07:20:31;2.75;;;0.90;;
44197;SDS011;30157;55.512;37.764;2022-07-29T07:22:57;1.20;;;0.80;;
44197;SDS011;30157;55.512;37.764;2022-07-29T07:25:23;1.58;;;0.90;;
44197;SDS011;30157;55.512;37.764;2022-07-29T07:27:49;3.75;;;1.30;;
44197;SDS011;30157;55.512;37.764;2022-07-29T07:30:15;2.60;;;1.45;;
44197;SDS011;30157;55.512;37.764;2022-07-29T07:32:41;2.88;;;1.52;;
44197;SDS011;30157;55.512;37.764;2022-07-29T07:35:07;1.20;;;1.00;;
44197;SDS011;30157;55.512;37.764;2022-07-29T07:37:34;3.67;;;0.90;;
44197;SDS011;30157;55.512;37.764;2022-07-29T07:40:01;2.75;;;0.98;;
44197;SDS011;30157;55.512;37.764;2022-07-29T07:42:29;2.17;;;0.80;;
44197;SDS011;30157;55.512;37.764;2022-07-29T07:44:55;2.88;;;1.10;;
44197;SDS011;30157;55.512;37.764;2022-07-29T07:47:21;3.92;;;1.23;;
44197;SDS011;30157;55.512;37.764;2022-07-29T07:49:49;1.52;;;1.00;;
44197;SDS011;30157;55.512;37.764;2022-07-29T07:52:15;2.92;;;1.10;;
44197;SDS011;30157;55.512;37.764;2022-07-29T07:54:42;1.77;;;1.00;;
44197;SDS011;30157;55.512;37.764;2022-07-29T07:57:10;0.95;;;0.80;;
44197;SDS011;30157;55.512;37.764;2022-07-29T07:59:38;5.07;;;1.30;;
44197;SDS011;30157;55.512;37.764;2022-07-29T08:02:04;1.80;;;1.10;;
44197;SDS011;30157;55.512;37.764;2022-07-29T08:04:30;1.90;;;1.00;;
44197;SDS011;30157;55.512;37.764;2022-07-29T08:06:56;2.00;;;0.90;;
44197;SDS011;30157;55.512;37.764;2022-07-29T08:09:23;1.42;;;0.80;;
44197;SDS011;30157;55.512;37.764;2022-07-29T08:11:50;2.00;;;1.00;;
44197;SDS011;30157;55.512;37.764;2022-07-29T08:14:18;1.58;;;0.98;;
44197;SDS011;30157;55.512;37.764;2022-07-29T08:16:45;2.65;;;0.80;;
44197;SDS011;30157;55.512;37.764;2022-07-29T08:19:11;1.67;;;0.80;;
44197;SDS011;30157;55.512;37.764;2022-07-29T08:21:38;1.83;;;1.00;;
44197;SDS011;30157;55.512;37.764;2022-07-29T08:24:04;4.22;;;1.35;;
44197;SDS011;30157;55.512;37.764;2022-07-29T08:26:49;1.85;;;1.10;;
44197;SDS011;30157;55.512;37.764;2022-07-29T08:29:14;1.92;;;1.10;;
44197;SDS011;30157;55.512;37.764;2022-07-29T08:31:41;1.98;;;0.90;;
44197;SDS011;30157;55.512;37.764;2022-07-29T08:34:07;1.52;;;0.80;;
44197;SDS011;30157;55.512;37.764;2022-07-29T08:36:33;1.38;;;0.90;;
44197;SDS011;30157;55.512;37.764;2022-07-29T08:39:02;2.45;;;1.10;;
44197;SDS011;30157;55.512;37.764;2022-07-29T08:41:28;2.55;;;1.30;;
44197;SDS011;30157;55.512;37.764;2022-07-29T08:43:54;2.05;;;1.20;;
44197;SDS011;30157;55.512;37.764;2022-07-29T08:46:22;6.28;;;1.40;;
44197;SDS011;30157;55.512;37.764;2022-07-29T08:48:50;1.77;;;1.00;;
44197;SDS011;30157;55.512;37.764;2022-07-29T08:51:20;2.22;;;1.05;;
44197;SDS011;30157;55.512;37.764;2022-07-29T08:53:47;1.40;;;0.90;;
44197;SDS011;30157;55.512;37.764;2022-07-29T08:56:15;2.38;;;0.90;;
44197;SDS011;30157;55.512;37.764;2022-07-29T08:58:45;3.50;;;1.65;;
44197;SDS011;30157;55.512;37.764;2022-07-29T09:01:16;3.03;;;1.20;;
44197;SDS011;30157;55.512;37.764;2022-07-29T09:03:43;3.30;;;1.60;;
44197;SDS011;30157;55.512;37.764;2022-07-29T09:06:13;3.72;;;1.30;;
44197;SDS011;30157;55.512;37.764;2022-07-29T09:08:40;1.75;;;1.00;;
44197;SDS011;30157;55.512;37.764;2022-07-29T09:11:09;3.33;;;1.13;;
44197;SDS011;30157;55.512;37.764;2022-07-29T09:13:36;1.70;;;0.90;;
44197;SDS011;30157;55.512;37.764;2022-07-29T09:16:02;2.03;;;1.02;;
44197;SDS011;30157;55.512;37.764;2022-07-29T09:21:02;1.33;;;0.80;;
44197;SDS011;30157;55.512;37.764;2022-07-29T09:24:10;1.00;;;0.82;;
44197;SDS011;30157;55.512;37.764;2022-07-29T09:26:37;2.50;;;0.85;;
44197;SDS011;30157;55.512;37.764;2022-07-29T09:29:15;1.48;;;0.90;;
44197;SDS011;30157;55.512;37.764;2022-07-29T09:31:43;2.58;;;0.90;;
44197;SDS011;30157;55.512;37.764;2022-07-29T09:34:11;1.75;;;0.77;;
44197;SDS011;30157;55.512;37.764;2022-07-29T09:36:42;1.88;;;0.90;;
44197;SDS011;30157;55.512;37.764;2022-07-29T09:39:13;2.28;;;1.00;;
44197;SDS011;30157;55.512;37.764;2022-07-29T09:41:53;1.88;;;1.00;;
44197;SDS011;30157;55.512;37.764;2022-07-29T09:44:21;3.75;;;1.00;;
44197;SDS011;30157;55.512;37.764;2022-07-29T09:47:01;3.85;;;1.02;;
44197;SDS011;30157;55.512;37.764;2022-07-29T09:49:32;2.60;;;1.25;;
44197;SDS011;30157;55.512;37.764;2022-07-29T09:52:07;2.00;;;0.90;;
44197;SDS011;30157;55.512;37.764;2022-07-29T09:54:35;1.92;;;1.02;;
44197;SDS011;30157;55.512;37.764;2022-07-29T09:57:05;2.45;;;1.00;;
44197;SDS011;30157;55.512;37.764;2022-07-29T09:59:34;4.22;;;1.40;;
44197;SDS011;30157;55.512;37.764;2022-07-29T10:02:01;4.32;;;1.23;;
44197;SDS011;30157;55.512;37.764;2022-07-29T10:04:38;2.58;;;1.15;;
44197;SDS011;30157;55.512;37.764;2022-07-29T10:07:07;2.72;;;1.05;;
44197;SDS011;30157;55.512;37.764;2022-07-29T10:09:33;3.05;;;0.90;;
44197;SDS011;30157;55.512;37.764;2022-07-29T10:12:12;1.85;;;0.90;;
44197;SDS011;30157;55.512;37.764;2022-07-29T10:14:41;1.77;;;0.85;;
44197;SDS011;30157;55.512;37.764;2022-07-29T10:17:09;1.40;;;0.93;;
44197;SDS011;30157;55.512;37.764;2022-07-29T10:19:36;2.17;;;0.90;;
44197;SDS011;30157;55.512;37.764;2022-07-29T10:22:04;1.73;;;0.80;;
44197;SDS011;30157;55.512;37.764;2022-07-29T10:24:31;1.90;;;0.90;;
44197;SDS011;30157;55.512;37.764;2022-07-29T10:26:58;1.73;;;0.90;;
44197;SDS011;30157;55.512;37.764;2022-07-29T10:29:26;1.30;;;0.93;;
44197;SDS011;30157;55.512;37.764;2022-07-29T10:34:28;1.70;;;0.95;;
44197;SDS011;30157;55.512;37.764;2022-07-29T10:37:26;1.60;;;0.90;;
44197;SDS011;30157;55.512;37.764;2022-07-29T10:43:22;0.98;;;0.80;;
44197;SDS011;30157;55.512;37.764;2022-07-29T10:45:55;2.58;;;1.02;;
44197;SDS011;30157;55.512;37.764;2022-07-29T10:48:23;1.35;;;0.80;;
44197;SDS011;30157;55.512;37.764;2022-07-29T10:50:55;2.20;;;0.70;;
44197;SDS011;30157;55.512;37.764;2022-07-29T10:56:24;1.38;;;0.80;;
44197;SDS011;30157;55.512;37.764;2022-07-29T11:01:45;2.25;;;0.82;;
44197;SDS011;30157;55.512;37.764;2022-07-29T11:04:15;2.83;;;1.00;;
44197;SDS011;30157;55.512;37.764;2022-07-29T11:09:27;1.85;;;0.80;;
44197;SDS011;30157;55.512;37.764;2022-07-29T11:11:55;3.58;;;0.80;;
44197;SDS011;30157;55.512;37.764;2022-07-29T11:17:29;2.08;;;0.90;;
44197;SDS011;30157;55.512;37.764;2022-07-29T11:20:29;2.28;;;0.90;;
44197;SDS011;30157;55.512;37.764;2022-07-29T11:22:55;1.67;;;0.90;;
44197;SDS011;30157;55.512;37.764;2022-07-29T11:25:21;2.00;;;0.80;;
44197;SDS011;30157;55.512;37.764;2022-07-29T11:27:47;1.30;;;0.90;;
44197;SDS011;30157;55.512;37.764;2022-07-29T11:30:12;2.03;;;0.80;;
44197;SDS011;30157;55.512;37.764;2022-07-29T11:32:42;2.38;;;0.90;;
44197;SDS011;30157;55.512;37.764;2022-07-29T11:35:15;3.05;;;1.30;;
44197;SDS011;30157;55.512;37.764;2022-07-29T11:37:42;3.10;;;1.92;;
44197;SDS011;30157;55.512;37.764;2022-07-29T11:40:10;4.80;;;2.63;;
44197;SDS011;30157;55.512;37.764;2022-07-29T11:42:38;2.53;;;1.30;;
44197;SDS011;30157;55.512;37.764;2022-07-29T11:47:34;7.35;;;3.40;;
44197;SDS011;30157;55.512;37.764;2022-07-29T11:50:07;5.13;;;2.92;;
44197;SDS011;30157;55.512;37.764;2022-07-29T11:52:41;5.40;;;2.78;;
44197;SDS011;30157;55.512;37.764;2022-07-29T11:55:10;4.43;;;2.13;;
44197;SDS011;30157;55.512;37.764;2022-07-29T11:57:48;3.30;;;1.60;;
44197;SDS011;30157;55.512;37.764;2022-07-29T12:00:23;4.93;;;1.73;;
44197;SDS011;30157;55.512;37.764;2022-07-29T12:02:52;5.72;;;2.00;;
44197;SDS011;30157;55.512;37.764;2022-07-29T12:05:18;7.43;;;4.18;;
44197;SDS011;30157;55.512;37.764;2022-07-29T12:07:46;4.95;;;3.03;;
44197;SDS011;30157;55.512;37.764;2022-07-29T12:10:12;2.22;;;1.40;;
44197;SDS011;30157;55.512;37.764;2022-07-29T12:12:38;2.00;;;1.13;;
44197;SDS011;30157;55.512;37.764;2022-07-29T12:15:11;1.65;;;1.00;;
44197;SDS011;30157;55.512;37.764;2022-07-29T12:17:37;2.00;;;1.20;;
44197;SDS011;30157;55.512;37.764;2022-07-29T12:20:04;1.35;;;0.90;;
44197;SDS011;30157;55.512;37.764;2022-07-29T12:22:32;2.33;;;1.20;;
44197;SDS011;30157;55.512;37.764;2022-07-29T12:25:03;4.30;;;1.00;;
44197;SDS011;30157;55.512;37.764;2022-07-29T12:27:31;1.30;;;1.05;;
44197;SDS011;30157;55.512;37.764;2022-07-29T12:29:58;2.28;;;1.20;;
44197;SDS011;30157;55.512;37.764;2022-07-29T12:32:36;1.58;;;1.20;;
44197;SDS011;30157;55.512;37.764;2022-07-29T12:35:14;2.35;;;1.00;;
44197;SDS011;30157;55.512;37.764;2022-07-29T12:37:42;2.20;;;0.82;;
44197;SDS011;30157;55.512;37.764;2022-07-29T12:40:13;1.50;;;0.90;;
44197;SDS011;30157;55.512;37.764;2022-07-29T12:43:04;2.42;;;1.10;;
44197;SDS011;30157;55.512;37.764;2022-07-29T12:45:38;1.45;;;0.80;;
44197;SDS011;30157;55.512;37.764;2022-07-29T12:48:05;1.70;;;0.90;;
44197;SDS011;30157;55.512;37.764;2022-07-29T12:50:34;1.50;;;0.80;;
44197;SDS011;30157;55.512;37.764;2022-07-29T12:53:08;1.40;;;0.90;;
44197;SDS011;30157;55.512;37.764;2022-07-29T12:55:46;1.45;;;0.90;;
44197;SDS011;30157;55.512;37.764;2022-07-29T12:58:35;2.47;;;0.93;;
44197;SDS011;30157;55.512;37.764;2022-07-29T13:01:06;1.30;;;0.90;;
44197;SDS011;30157;55.512;37.764;2022-07-29T13:06:35;1.25;;;0.93;;
44197;SDS011;30157;55.512;37.764;2022-07-29T13:09:03;1.40;;;0.90;;
44197;SDS011;30157;55.512;37.764;2022-07-29T13:11:37;2.17;;;1.10;;
44197;SDS011;30157;55.512;37.764;2022-07-29T13:14:06;0.98;;;0.80;;
44197;SDS011;30157;55.512;37.764;2022-07-29T13:16:34;1.88;;;0.70;;
44197;SDS011;30157;55.512;37.764;2022-07-29T13:19:12;1.92;;;1.20;;
44197;SDS011;30157;55.512;37.764;2022-07-29T13:21:38;2.80;;;0.98;;
44197;SDS011;30157;55.512;37.764;2022-07-29T13:24:05;3.42;;;1.00;;
44197;SDS011;30157;55.512;37.764;2022-07-29T13:26:32;1.38;;;0.90;;
44197;SDS011;30157;55.512;37.764;2022-07-29T13:28:58;1.30;;;0.70;;
44197;SDS011;30157;55.512;37.764;2022-07-29T13:31:23;1.70;;;0.80;;
44197;SDS011;30157;55.512;37.764;2022-07-29T13:33:49;1.55;;;0.90;;
44197;SDS011;30157;55.512;37.764;2022-07-29T13:36:15;1.08;;;0.80;;
44197;SDS011;30157;55.512;37.764;2022-07-29T13:38:41;1.77;;;0.90;;
44197;SDS011;30157;55.512;37.764;2022-07-29T13:41:14;1.45;;;0.75;;
44197;SDS011;30157;55.512;37.764;2022-07-29T13:43:40;3.45;;;1.40;;
44197;SDS011;30157;55.512;37.764;2022-07-29T13:46:06;1.55;;;0.90;;
44197;SDS011;30157;55.512;37.764;2022-07-29T13:48:31;2.58;;;1.33;;
44197;SDS011;30157;55.512;37.764;2022-07-29T13:51:05;1.20;;;0.90;;
44197;SDS011;30157;55.512;37.764;2022-07-29T13:53:30;2.13;;;0.73;;
44197;SDS011;30157;55.512;37.764;2022-07-29T13:55:56;1.67;;;0.82;;
44197;SDS011;30157;55.512;37.764;2022-07-29T13:58:22;1.55;;;0.80;;
44197;SDS011;30157;55.512;37.764;2022-07-29T14:00:48;2.22;;;1.00;;
44197;SDS011;30157;55.512;37.764;2022-07-29T14:03:14;1.75;;;1.08;;
44197;SDS011;30157;55.512;37.764;2022-07-29T14:05:40;1.88;;;1.00;;
44197;SDS011;30157;55.512;37.764;2022-07-29T14:08:06;2.47;;;1.00;;
44197;SDS011;30157;55.512;37.764;2022-07-29T14:10:31;2.17;;;1.02;;
44197;SDS011;30157;55.512;37.764;2022-07-29T14:12:57;1.42;;;0.93;;
44197;SDS011;30157;55.512;37.764;2022-07-29T14:15:23;1.60;;;1.00;;
44197;SDS011;30157;55.512;37.764;2022-07-29T14:17:48;1.20;;;1.00;;
44197;SDS011;30157;55.512;37.764;2022-07-29T14:20:14;1.85;;;1.02;;
44197;SDS011;30157;55.512;37.764;2022-07-29T14:22:40;1.73;;;1.08;;
44197;SDS011;30157;55.512;37.764;2022-07-29T14:25:07;1.67;;;1.00;;
44197;SDS011;30157;55.512;37.764;2022-07-29T14:27:33;1.35;;;1.00;;
44197;SDS011;30157;55.512;37.764;2022-07-29T14:29:59;1.80;;;1.20;;
44197;SDS011;30157;55.512;37.764;2022-07-29T14:32:25;1.75;;;1.05;;
44197;SDS011;30157;55.512;37.764;2022-07-29T14:34:50;1.90;;;1.20;;
44197;SDS011;30157;55.512;37.764;2022-07-29T14:37:16;1.45;;;0.98;;
44197;SDS011;30157;55.512;37.764;2022-07-29T14:39:42;1.83;;;1.17;;
44197;SDS011;30157;55.512;37.764;2022-07-29T14:42:07;0.90;;;0.75;;
44197;SDS011;30157;55.512;37.764;2022-07-29T14:44:33;1.98;;;1.00;;
44197;SDS011;30157;55.512;37.764;2022-07-29T14:46:59;1.90;;;0.90;;
44197;SDS011;30157;55.512;37.764;2022-07-29T14:49:28;5.88;;;1.38;;
44197;SDS011;30157;55.512;37.764;2022-07-29T14:51:54;1.27;;;0.90;;
44197;SDS011;30157;55.512;37.764;2022-07-29T14:54:19;1.33;;;0.77;;
44197;SDS011;30157;55.512;37.764;2022-07-29T14:56:45;1.70;;;1.20;;
44197;SDS011;30157;55.512;37.764;2022-07-29T14:59:11;3.00;;;1.25;;
44197;SDS011;30157;55.512;37.764;2022-07-29T15:01:37;2.35;;;1.20;;
44197;SDS011;30157;55.512;37.764;2022-07-29T15:04:03;1.50;;;0.98;;
44197;SDS011;30157;55.512;37.764;2022-07-29T15:06:29;4.18;;;1.27;;
44197;SDS011;30157;55.512;37.764;2022-07-29T15:08:54;3.30;;;1.48;;
44197;SDS011;30157;55.512;37.764;2022-07-29T15:11:20;2.03;;;1.10;;
44197;SDS011;30157;55.512;37.764;2022-07-29T15:13:46;1.95;;;1.20;;